Stations météo

réclame
Mon MeteoGroup
Cardiff, Grande-Bretagne (3715): Température de l'air & dewpoint: 16.06.2018 08:00:00 - 22.06.2018 08:00:00 (BST)Cardiff, Grande-Bretagne (3715): Vitesse du vent: 16.06.2018 08:00:00 - 22.06.2018 08:00:00 (BST)Cardiff, Grande-Bretagne (3715): Direction du vent: 16.06.2018 08:00:00 - 22.06.2018 08:00:00 (BST)Cardiff, Grande-Bretagne (3715): visibility: 16.06.2018 08:00:00 - 22.06.2018 08:00:00 (BST)
Date & Time tt [°C] td [°C] ff [km/h] ff [knt] dd vv [km]
22.06.2018 08:00:00 12,0 6,0 9 5 N 10
22.06.2018 07:00:00 9,0 5,0 5 3 - 10
22.06.2018 06:00:00 8,0 4,0 11 6 N 10
22.06.2018 05:00:00 7,0 4,0 11 6 N 10
22.06.2018 04:00:00 7,0 3,0 15 8 NNW 10
22.06.2018 03:00:00 8,0 4,0 5 3 - 10
22.06.2018 02:00:00 9,0 4,0 5 3 - 10
22.06.2018 01:00:00 11,0 4,0 21 11 NNE 10
22.06.2018 00:00:00 11,0 3,0 16 9 NNE 10
21.06.2018 23:00:00 12,0 4,0 16 9 NNE 10
21.06.2018 22:00:00 13,0 5,0 15 8 NNE 10
21.06.2018 21:00:00 16,0 4,0 15 8 NNE 10
21.06.2018 20:00:00 18,0 3,0 18 10 NNE 10
21.06.2018 19:00:00 19,0 3,0 15 8 NE 10
21.06.2018 18:00:00 19,0 2,0 18 10 NNE 10
21.06.2018 17:00:00 19,0 3,0 18 10 N 10
21.06.2018 16:00:00 19,0 3,0 13 7 N 10
21.06.2018 15:00:00 19,0 3,0 16 9 NNE 10
21.06.2018 14:00:00 19,0 3,0 18 10 NE 10
21.06.2018 13:00:00 18,0 4,0 15 8 N 10
21.06.2018 12:00:00 17,0 6,0 18 10 N 10
21.06.2018 11:00:00 16,0 6,0 16 9 NNW 10
21.06.2018 10:00:00 14,0 6,0 15 8 N 10
21.06.2018 09:00:00 13,0 7,0 18 10 N 10
21.06.2018 08:00:00 11,0 7,0 8 4 WNW 10
21.06.2018 07:00:00 9,0 8,0 8 4 W 10
21.06.2018 06:00:00 8,0 7,0 11 6 WNW 10
21.06.2018 05:00:00 8,0 7,0 11 6 NW 10
21.06.2018 04:00:00 8,0 7,0 9 5 WNW 10
21.06.2018 03:00:00 8,0 7,0 15 8 NW 10
21.06.2018 02:00:00 9,0 8,0 13 7 NW 10
21.06.2018 01:00:00 10,0 8,0 15 8 NW 10
21.06.2018 00:00:00 10,0 9,0 15 8 NW 10
20.06.2018 23:00:00 11,0 9,0 15 8 NW 10
20.06.2018 22:00:00 12,0 11,0 15 8 NW 10
20.06.2018 21:00:00 15,0 12,0 16 9 WNW 10
20.06.2018 20:00:00 16,0 14,0 13 7 WNW 10
20.06.2018 19:00:00 16,0 14,0 18 10 W 10
20.06.2018 18:00:00 16,0 14,0 21 11 W 10
20.06.2018 17:00:00 16,0 14,0 21 11 W 10
20.06.2018 16:00:00 16,0 15,0 18 10 W 10
20.06.2018 15:00:00 16,0 15,0 22 12 W 3,8
20.06.2018 14:00:00 15,0 15,0 26 14 W 6
20.06.2018 13:00:00 16,0 16,0 28 15 W 6
20.06.2018 12:00:00 17,0 16,0 29 16 W 8
20.06.2018 11:00:00 17,0 15,0 21 11 W 10
20.06.2018 10:00:00 17,0 15,0 21 11 W 10
20.06.2018 09:00:00 16,0 15,0 18 10 W 5
20.06.2018 08:00:00 17,0 15,0 13 7 SW 10
20.06.2018 07:00:00 16,0 15,0 11 6 SSW 6
20.06.2018 06:00:00 15,0 15,0 8 4 SW 10
20.06.2018 05:00:00 15,0 14,0 13 7 W 10
20.06.2018 04:00:00 15,0 14,0 16 9 WNW 10
20.06.2018 03:00:00 16,0 14,0 11 6 W 10
20.06.2018 02:00:00 16,0 15,0 13 7 W 10
20.06.2018 01:00:00 16,0 15,0 13 7 W 10
20.06.2018 00:00:00 16,0 15,0 11 6 WSW 10
19.06.2018 23:00:00 17,0 15,0 15 8 W 10
19.06.2018 22:00:00 17,0 15,0 21 11 W 10
19.06.2018 21:00:00 17,0 15,0 18 10 W 10
19.06.2018 20:00:00 18,0 15,0 21 11 W 10
19.06.2018 19:00:00 18,0 15,0 24 13 W 10
19.06.2018 18:00:00 18,0 16,0 26 14 W 10
19.06.2018 17:00:00 19,0 17,0 29 16 WNW 10
19.06.2018 16:00:00 20,0 17,0 28 15 WNW 10
19.06.2018 15:00:00 19,0 17,0 29 16 WNW 10
19.06.2018 14:00:00 19,0 17,0 26 14 W 10
19.06.2018 13:00:00 18,0 16,0 18 10 W 10
19.06.2018 12:00:00 17,0 17,0 21 11 W 10
19.06.2018 11:00:00 16,0 16,0 15 8 W 2,5
19.06.2018 10:00:00 16,0 16,0 16 9 W 1,8
19.06.2018 09:00:00 15,0 15,0 15 8 W 2,2
19.06.2018 08:00:00 15,0 15,0 13 7 W 2,2
19.06.2018 07:00:00 15,0 14,0 16 9 W 10
19.06.2018 06:00:00 14,0 14,0 13 7 W 4,4
19.06.2018 05:00:00 15,0 14,0 18 10 W 6
19.06.2018 04:00:00 15,0 14,0 21 11 W 4,1
19.06.2018 03:00:00 15,0 15,0 24 13 W 2,0
19.06.2018 02:00:00 15,0 15,0 28 15 W 2,0
19.06.2018 01:00:00 15,0 15,0 26 14 W 3,0
19.06.2018 00:00:00 15,0 15,0 29 16 W 10
18.06.2018 23:00:00 15,0 15,0 28 15 W 10
18.06.2018 22:00:00 16,0 15,0 29 16 W 10
18.06.2018 21:00:00 16,0 15,0 28 15 W 10
18.06.2018 20:00:00 16,0 15,0 31 17 W 10
18.06.2018 19:00:00 16,0 15,0 26 14 W 10
18.06.2018 18:00:00 17,0 15,0 28 15 W 7
18.06.2018 17:00:00 17,0 15,0 26 14 W 10
18.06.2018 16:00:00 17,0 15,0 31 17 W 10
18.06.2018 15:00:00 17,0 15,0 26 14 W 10
18.06.2018 14:00:00 17,0 14,0 21 11 W 10
18.06.2018 13:00:00 16,0 13,0 26 14 W 8
18.06.2018 12:00:00 16,0 12,0 28 15 W 10
18.06.2018 11:00:00 15,0 11,0 22 12 W 10
18.06.2018 10:00:00 15,0 10,0 26 14 W 10
18.06.2018 09:00:00 14,0 11,0 28 15 W 10
18.06.2018 08:00:00 14,0 12,0 22 12 W 10
18.06.2018 07:00:00 14,0 12,0 29 16 W 10
18.06.2018 06:00:00 14,0 12,0 26 14 W 10
18.06.2018 05:00:00 14,0 12,0 22 12 W 10
18.06.2018 04:00:00 14,0 13,0 26 14 W 10
18.06.2018 03:00:00 14,0 13,0 24 13 W 10
18.06.2018 02:00:00 14,0 13,0 24 13 W 6
18.06.2018 01:00:00 14,0 13,0 22 12 W 10
18.06.2018 00:00:00 14,0 13,0 24 13 W 10
17.06.2018 23:00:00 14,0 14,0 22 12 W 10
17.06.2018 22:00:00 15,0 15,0 21 11 W 4,6
17.06.2018 21:00:00 15,0 15,0 21 11 W 4,0
17.06.2018 20:00:00 15,0 15,0 24 13 W 4,5
17.06.2018 19:00:00 15,0 15,0 22 12 W 9
17.06.2018 18:00:00 16,0 15,0 28 15 W 10
17.06.2018 17:00:00 16,0 15,0 18 10 W 10
17.06.2018 16:00:00 16,0 15,0 13 7 W 10
17.06.2018 15:00:00 16,0 14,0 11 6 SSW 10
17.06.2018 14:00:00 15,0 14,0 11 6 S 10
17.06.2018 13:00:00 14,0 13,0 13 7 SSE 4,5
17.06.2018 12:00:00 14,0 12,0 13 7 SSW 10
17.06.2018 11:00:00 14,0 12,0 9 5 SW 10
17.06.2018 10:00:00 15,0 11,0 13 7 WSW 10
17.06.2018 09:00:00 14,0 11,0 16 9 WSW 10
17.06.2018 08:00:00 14,0 11,0 21 11 W 10
17.06.2018 07:00:00 13,0 11,0 16 9 W 10
17.06.2018 06:00:00 13,0 10,0 18 10 W 10
17.06.2018 05:00:00 13,0 11,0 18 10 W 10
17.06.2018 04:00:00 13,0 10,0 26 14 W 10
17.06.2018 03:00:00 14,0 11,0 22 12 W 10
17.06.2018 02:00:00 14,0 11,0 26 14 W 10
17.06.2018 01:00:00 13,0 11,0 28 15 W 10
17.06.2018 00:00:00 13,0 11,0 29 16 W 10
16.06.2018 23:00:00 13,0 11,0 29 16 W 10
16.06.2018 22:00:00 13,0 11,0 31 17 W 10
16.06.2018 21:00:00 14,0 11,0 31 17 W 10
16.06.2018 20:00:00 14,0 11,0 28 15 W 10
16.06.2018 19:00:00 15,0 11,0 28 15 W 10
16.06.2018 18:00:00 15,0 11,0 34 18 W 10
16.06.2018 17:00:00 16,0 10,0 29 16 W 10
16.06.2018 16:00:00 16,0 12,0 34 18 W 10
16.06.2018 15:00:00 14,0 13,0 34 18 W 5
16.06.2018 14:00:00 17,0 15,0 9 5 SSW 10
16.06.2018 13:00:00 17,0 14,0 18 10 S 10
16.06.2018 12:00:00 16,0 13,0 13 7 S 10
16.06.2018 11:00:00 15,0 12,0 16 9 S 10
16.06.2018 10:00:00 14,0 11,0 8 4 S 10
16.06.2018 09:00:00 15,0 11,0 13 7 SSW 10
16.06.2018 08:00:00 14,0 11,0 15 8 SSW 10

tt = Température de l'air
td = dewpoint
ff = Vitesse du vent
dd = Direction du vent
vv = visibility

stations d'obs. à proximité